createdAt,value
2019-04-29T00:01:56.652Z,10.13
2019-04-29T00:04:06.080Z,10.70
2019-04-29T00:06:14.317Z,10.50
2019-04-29T00:08:22.182Z,8.18
2019-04-29T00:10:30.298Z,8.58
2019-04-29T00:12:38.304Z,8.83
2019-04-29T00:14:47.713Z,4.10
2019-04-29T00:16:57.217Z,5.45
2019-04-29T00:19:23.377Z,5.45
2019-04-29T00:21:32.345Z,5.22
2019-04-29T00:23:41.122Z,5.37
2019-04-29T00:25:48.882Z,6.28
2019-04-29T00:27:56.742Z,4.15
2019-04-29T00:30:09.876Z,6.62
2019-04-29T00:32:17.740Z,7.08
2019-04-29T00:34:25.666Z,6.83
2019-04-29T00:36:35.304Z,4.58
2019-04-29T00:39:02.731Z,6.30
2019-04-29T00:41:13.908Z,6.08
2019-04-29T00:43:23.422Z,3.37
2019-04-29T00:45:31.464Z,4.12
2019-04-29T00:47:39.298Z,3.08
2019-04-29T00:49:47.189Z,4.10
2019-04-29T00:51:55.127Z,3.37
2019-04-29T00:54:06.279Z,4.00
2019-04-29T00:56:14.375Z,3.37
2019-04-29T00:58:22.286Z,2.30
2019-04-29T01:00:40.909Z,3.05
2019-04-29T01:02:48.827Z,3.00
2019-04-29T01:04:56.833Z,2.00
2019-04-29T01:07:05.367Z,2.77
2019-04-29T01:09:14.933Z,1.50
2019-04-29T01:11:25.186Z,2.60
2019-04-29T01:13:34.341Z,3.02
2019-04-29T01:15:42.333Z,2.50
2019-04-29T01:17:50.270Z,3.70
2019-04-29T01:19:58.134Z,2.98
2019-04-29T01:22:06.281Z,3.30
2019-04-29T01:24:14.451Z,2.85
2019-04-29T01:26:23.913Z,3.20
2019-04-29T01:28:37.895Z,6.83
2019-04-29T01:31:00.008Z,4.67
2019-04-29T01:33:07.944Z,4.70
2019-04-29T01:35:15.806Z,5.33
2019-04-29T01:37:40.527Z,3.27
2019-04-29T01:40:06.193Z,3.60
2019-04-29T01:42:22.059Z,4.60
2019-04-29T01:44:31.454Z,3.87
2019-04-29T01:46:39.221Z,4.90
2019-04-29T01:48:47.027Z,4.50
2019-04-29T01:50:54.980Z,6.65
2019-04-29T01:53:02.846Z,3.98
2019-04-29T01:55:10.882Z,3.80
2019-04-29T01:57:18.751Z,7.08
2019-04-29T01:59:26.725Z,6.53
2019-04-29T02:01:34.599Z,3.60
2019-04-29T02:03:42.461Z,3.22
2019-04-29T02:05:50.403Z,6.58
2019-04-29T02:07:58.299Z,8.20
2019-04-29T02:10:08.442Z,7.50
2019-04-29T02:12:16.115Z,5.80
2019-04-29T02:14:24.013Z,7.17
2019-04-29T02:16:31.954Z,7.92
2019-04-29T02:18:39.818Z,7.28
2019-04-29T02:20:47.605Z,8.85
2019-04-29T02:23:01.029Z,7.08
2019-04-29T02:25:10.941Z,8.90
2019-04-29T02:27:19.807Z,10.20
2019-04-29T02:29:27.819Z,10.90
2019-04-29T02:31:38.463Z,15.98
2019-04-29T02:33:46.350Z,11.45
2019-04-29T02:35:54.223Z,12.18
2019-04-29T02:38:02.875Z,11.78
2019-04-29T02:40:12.375Z,12.40
2019-04-29T02:42:38.046Z,12.40
2019-04-29T02:44:46.129Z,8.83
2019-04-29T02:46:54.118Z,10.82
2019-04-29T02:49:01.931Z,11.93
2019-04-29T02:51:09.778Z,13.80
2019-04-29T02:53:18.150Z,14.28
2019-04-29T02:55:30.631Z,11.97
2019-04-29T02:57:42.941Z,16.40
2019-04-29T02:59:52.735Z,17.48
2019-04-29T03:02:06.509Z,13.88
2019-04-29T03:04:22.113Z,10.45
2019-04-29T03:06:31.149Z,9.88
2019-04-29T03:08:39.425Z,10.00
2019-04-29T03:10:47.412Z,13.62
2019-04-29T03:12:55.217Z,15.25
2019-04-29T03:15:03.238Z,18.90
2019-04-29T03:17:11.481Z,20.50
2019-04-29T03:19:21.158Z,20.95
2019-04-29T03:21:34.063Z,23.45
2019-04-29T03:23:42.109Z,17.05
2019-04-29T03:25:50.249Z,16.07
2019-04-29T03:27:58.109Z,13.62
2019-04-29T03:30:07.448Z,15.43
2019-04-29T03:32:15.358Z,15.43
2019-04-29T03:34:23.262Z,12.60
2019-04-29T03:36:31.026Z,13.25
2019-04-29T03:38:38.933Z,17.65
2019-04-29T03:40:46.721Z,20.92
2019-04-29T03:42:54.508Z,45.30
2019-04-29T03:45:02.407Z,44.18
2019-04-29T03:47:10.191Z,31.25
2019-04-29T03:49:17.966Z,36.13
2019-04-29T03:51:25.888Z,24.40
2019-04-29T03:53:33.919Z,36.25
2019-04-29T03:55:41.708Z,33.40
2019-04-29T03:57:49.690Z,32.53
2019-04-29T03:59:57.469Z,46.68
2019-04-29T04:02:17.192Z,39.05
2019-04-29T04:04:43.100Z,18.82
2019-04-29T04:06:55.473Z,16.20
2019-04-29T04:09:10.840Z,12.82
2019-04-29T04:11:18.826Z,15.53
2019-04-29T04:13:26.598Z,13.53
2019-04-29T04:15:34.684Z,13.13
2019-04-29T04:17:47.944Z,13.38
2019-04-29T04:19:55.992Z,12.63
2019-04-29T04:22:04.034Z,16.10
2019-04-29T04:24:11.847Z,14.75
2019-04-29T04:26:20.277Z,11.25
2019-04-29T04:28:29.369Z,11.90
2019-04-29T04:30:37.252Z,9.73
2019-04-29T04:32:45.355Z,9.68
2019-04-29T04:34:53.304Z,10.75
2019-04-29T04:37:01.213Z,42.65
2019-04-29T04:39:09.843Z,78.65
2019-04-29T04:41:17.922Z,41.48
2019-04-29T04:43:25.860Z,19.23
2019-04-29T04:45:33.748Z,14.45
2019-04-29T04:47:41.583Z,14.63
2019-04-29T04:49:49.644Z,14.47
2019-04-29T04:51:57.596Z,16.45
2019-04-29T04:54:05.547Z,14.90
2019-04-29T04:56:13.860Z,14.78
2019-04-29T04:58:22.096Z,20.23
2019-04-29T05:00:31.753Z,17.30
2019-04-29T05:02:39.569Z,24.98
2019-04-29T05:04:48.388Z,18.35
2019-04-29T05:06:56.305Z,28.70
2019-04-29T05:09:07.468Z,27.35
2019-04-29T05:11:16.693Z,21.77
2019-04-29T05:13:28.384Z,21.87
2019-04-29T05:15:34.263Z,23.70
2019-04-29T05:17:42.235Z,24.80
2019-04-29T05:19:50.078Z,21.42
2019-04-29T05:21:57.909Z,23.80
2019-04-29T05:24:06.858Z,22.20
2019-04-29T05:26:15.136Z,30.30
2019-04-29T05:28:25.031Z,79.87
2019-04-29T05:30:32.996Z,23.20
2019-04-29T05:32:40.986Z,25.00
2019-04-29T05:34:50.550Z,30.68
2019-04-29T05:37:16.301Z,33.10
2019-04-29T05:39:37.859Z,36.05
2019-04-29T05:41:45.707Z,30.95
2019-04-29T05:44:11.594Z,39.23
2019-04-29T05:46:21.738Z,31.27
2019-04-29T05:48:32.094Z,35.08
2019-04-29T05:50:42.997Z,37.42
2019-04-29T05:52:59.713Z,33.88
2019-04-29T05:55:09.598Z,29.35
2019-04-29T05:57:20.345Z,32.60
2019-04-29T05:59:27.155Z,33.00
2019-04-29T06:01:34.973Z,33.35
2019-04-29T06:03:44.507Z,36.05
2019-04-29T06:05:52.437Z,35.95
2019-04-29T06:08:02.822Z,43.87
2019-04-29T06:10:11.666Z,42.03
2019-04-29T06:12:19.559Z,46.83
2019-04-29T06:14:27.381Z,45.30
2019-04-29T06:16:35.412Z,46.00
2019-04-29T06:18:43.269Z,48.85
2019-04-29T06:20:51.184Z,55.65
2019-04-29T06:23:00.065Z,59.15
2019-04-29T06:25:08.062Z,60.73
2019-04-29T06:27:16.462Z,54.90
2019-04-29T06:29:26.102Z,53.95
2019-04-29T06:31:34.192Z,48.50
2019-04-29T06:33:42.219Z,56.40
2019-04-29T06:35:50.441Z,74.30
2019-04-29T06:37:58.368Z,58.80
2019-04-29T06:40:07.825Z,55.20
2019-04-29T06:42:19.560Z,87.47
2019-04-29T06:44:26.027Z,92.25
2019-04-29T06:46:34.121Z,63.85
2019-04-29T06:48:42.205Z,61.77
2019-04-29T06:50:50.198Z,85.30
2019-04-29T06:52:58.119Z,92.80
2019-04-29T06:55:06.879Z,61.65
2019-04-29T06:57:14.737Z,68.95
2019-04-29T06:59:22.853Z,81.50
2019-04-29T07:01:33.030Z,165.30
2019-04-29T07:03:40.608Z,99.40
2019-04-29T07:05:51.388Z,86.67
2019-04-29T07:07:58.131Z,79.22
2019-04-29T07:10:07.135Z,59.30
2019-04-29T07:12:15.579Z,59.67
2019-04-29T07:14:23.454Z,77.05
2019-04-29T07:16:32.027Z,67.60
2019-04-29T07:18:48.317Z,67.92
2019-04-29T07:20:50.796Z,71.20
2019-04-29T07:23:00.654Z,62.95
2019-04-29T07:25:09.074Z,75.62
2019-04-29T07:27:16.866Z,80.92
2019-04-29T07:29:29.809Z,74.47
2019-04-29T07:31:35.202Z,84.20
2019-04-29T07:33:43.463Z,72.78
2019-04-29T07:35:51.358Z,68.42
2019-04-29T07:37:59.299Z,69.92
2019-04-29T07:40:09.378Z,76.62
2019-04-29T07:42:17.635Z,74.20
2019-04-29T07:44:32.868Z,79.37
2019-04-29T07:47:00.262Z,60.08
2019-04-29T07:49:05.649Z,75.52
2019-04-29T07:51:12.797Z,72.37
2019-04-29T07:53:29.977Z,78.67
2019-04-29T07:55:31.187Z,70.05
2019-04-29T07:57:41.094Z,62.23
2019-04-29T07:59:48.893Z,80.77
2019-04-29T08:01:59.822Z,66.53
2019-04-29T08:04:07.203Z,81.12
2019-04-29T08:06:16.612Z,84.30
2019-04-29T08:08:25.546Z,82.45
2019-04-29T08:10:34.229Z,66.62
2019-04-29T08:12:43.057Z,63.30
2019-04-29T08:14:53.409Z,85.57
2019-04-29T08:17:01.746Z,106.60
2019-04-29T08:19:09.713Z,88.58
2019-04-29T08:21:17.871Z,85.55
2019-04-29T08:23:26.200Z,59.40
2019-04-29T08:25:34.904Z,48.15
2019-04-29T08:27:43.819Z,54.08
2019-04-29T08:29:52.229Z,53.78
2019-04-29T08:32:02.479Z,38.17
2019-04-29T08:34:09.711Z,46.50
2019-04-29T08:36:17.557Z,43.40
2019-04-29T08:38:25.488Z,43.65
2019-04-29T08:40:34.353Z,39.50
2019-04-29T08:42:53.013Z,43.38
2019-04-29T08:45:05.309Z,41.18
2019-04-29T08:47:23.047Z,41.88
2019-04-29T08:49:31.080Z,45.63
2019-04-29T08:51:39.449Z,48.85
2019-04-29T08:53:47.408Z,45.43
2019-04-29T08:55:55.363Z,46.80
2019-04-29T08:58:07.006Z,64.22
2019-04-29T09:00:15.451Z,82.92
2019-04-29T09:02:34.531Z,65.75
2019-04-29T09:04:33.720Z,57.60
2019-04-29T09:06:42.729Z,50.25
2019-04-29T09:08:55.262Z,49.25
2019-04-29T09:11:00.345Z,88.10
2019-04-29T09:13:08.238Z,50.63
2019-04-29T09:15:17.047Z,58.08
2019-04-29T09:17:24.829Z,88.30
2019-04-29T09:19:33.841Z,83.75
2019-04-29T09:21:43.706Z,50.15
2019-04-29T09:23:51.671Z,53.48
2019-04-29T09:26:13.588Z,67.85
2019-04-29T09:28:28.127Z,54.40
2019-04-29T09:30:32.463Z,63.95
2019-04-29T09:32:40.363Z,57.55
2019-04-29T09:34:48.282Z,57.13
2019-04-29T09:36:56.444Z,38.50
2019-04-29T09:39:05.878Z,42.38
2019-04-29T09:41:25.817Z,40.92
2019-04-29T09:43:33.551Z,43.48
2019-04-29T09:45:43.245Z,43.10
2019-04-29T09:47:51.641Z,39.35
2019-04-29T09:50:00.591Z,42.65
2019-04-29T09:52:09.821Z,49.13
2019-04-29T09:54:17.636Z,50.88
2019-04-29T09:56:25.895Z,67.95
2019-04-29T09:58:33.826Z,68.60
2019-04-29T10:00:46.515Z,64.03
2019-04-29T10:02:57.108Z,77.60
2019-04-29T10:05:09.745Z,55.05
2019-04-29T10:07:17.665Z,51.60
2019-04-29T10:09:25.905Z,39.73
2019-04-29T10:11:33.951Z,41.58
2019-04-29T10:13:42.101Z,60.65
2019-04-29T10:16:07.961Z,61.95
2019-04-29T10:18:18.701Z,32.35
2019-04-29T10:20:48.036Z,28.85
2019-04-29T10:22:55.832Z,33.95
2019-04-29T10:25:05.671Z,50.73
2019-04-29T10:27:14.704Z,44.30
2019-04-29T10:29:25.839Z,42.53
2019-04-29T10:31:34.044Z,49.38
2019-04-29T10:33:42.340Z,37.60
2019-04-29T10:35:50.633Z,33.78
2019-04-29T10:38:02.941Z,33.55
2019-04-29T10:40:16.047Z,26.90
2019-04-29T10:42:31.886Z,27.75
2019-04-29T10:44:56.778Z,29.72
2019-04-29T10:47:13.962Z,36.85
2019-04-29T10:49:23.732Z,34.10
2019-04-29T10:51:32.256Z,45.05
2019-04-29T10:53:40.361Z,61.00
2019-04-29T10:55:48.421Z,53.92
2019-04-29T10:57:56.296Z,47.27
2019-04-29T11:00:10.368Z,35.65
2019-04-29T11:02:18.977Z,29.35
2019-04-29T11:04:26.912Z,32.42
2019-04-29T11:06:35.844Z,37.65
2019-04-29T11:08:47.516Z,37.65
2019-04-29T11:11:02.386Z,44.70
2019-04-29T11:13:06.894Z,42.13
2019-04-29T11:15:16.573Z,52.90
2019-04-29T11:17:26.481Z,54.30
2019-04-29T11:19:35.049Z,49.08
2019-04-29T11:21:44.633Z,54.85
2019-04-29T11:23:57.194Z,53.95
2019-04-29T11:26:23.702Z,52.62
2019-04-29T11:28:34.135Z,52.05
2019-04-29T11:30:42.217Z,54.20
2019-04-29T11:32:51.847Z,54.65
2019-04-29T11:35:10.138Z,52.67
2019-04-29T11:37:19.606Z,49.15
2019-04-29T11:39:27.569Z,48.92
2019-04-29T11:41:35.423Z,54.38
2019-04-29T11:43:46.658Z,47.93
2019-04-29T11:45:53.513Z,47.55
2019-04-29T11:48:01.473Z,38.63
2019-04-29T11:50:14.930Z,27.25
2019-04-29T11:52:23.555Z,27.62
2019-04-29T11:54:32.744Z,35.05
2019-04-29T11:56:40.814Z,37.25
2019-04-29T11:59:09.631Z,26.52
2019-04-29T12:01:39.193Z,29.80
2019-04-29T12:03:46.500Z,25.23
2019-04-29T12:05:56.325Z,22.42
2019-04-29T12:08:11.432Z,26.02
2019-04-29T12:10:14.223Z,29.92
2019-04-29T12:12:23.992Z,20.97
2019-04-29T12:14:37.970Z,21.30
2019-04-29T12:16:50.114Z,21.48
2019-04-29T12:19:08.805Z,16.80
2019-04-29T12:21:27.502Z,18.07
2019-04-29T12:23:35.567Z,25.55
2019-04-29T12:25:43.880Z,28.00
2019-04-29T12:28:01.175Z,29.27
2019-04-29T12:30:01.860Z,29.75
2019-04-29T12:32:16.368Z,36.03
2019-04-29T12:34:44.618Z,32.48
2019-04-29T12:36:56.873Z,33.23
2019-04-29T12:39:12.362Z,31.48
2019-04-29T12:41:29.912Z,34.58
2019-04-29T12:43:39.518Z,27.60
2019-04-29T12:45:49.733Z,32.67
2019-04-29T12:47:57.800Z,28.17
2019-04-29T12:50:08.124Z,18.75
2019-04-29T12:52:16.036Z,20.12
2019-04-29T12:54:23.826Z,20.25
2019-04-29T12:56:37.573Z,21.25
2019-04-29T12:58:50.386Z,21.02
2019-04-29T13:01:01.239Z,20.40
2019-04-29T13:03:09.111Z,18.32
2019-04-29T13:05:25.668Z,19.90
2019-04-29T13:07:44.170Z,18.45
2019-04-29T13:09:54.105Z,21.17
2019-04-29T13:12:18.010Z,20.20
2019-04-29T13:14:11.765Z,20.92
2019-04-29T13:16:33.969Z,27.75
2019-04-29T13:18:43.528Z,30.85
2019-04-29T13:20:53.725Z,58.92
2019-04-29T13:23:16.950Z,51.02
2019-04-29T13:25:15.550Z,44.30
2019-04-29T13:27:25.650Z,45.85
2019-04-29T13:29:36.100Z,48.95
2019-04-29T13:31:42.081Z,42.40
2019-04-29T13:33:52.895Z,39.45
2019-04-29T13:36:00.898Z,45.17
2019-04-29T13:38:08.883Z,55.80
2019-04-29T13:40:17.857Z,48.23
2019-04-29T13:42:26.032Z,61.83
2019-04-29T13:44:41.787Z,41.15
2019-04-29T13:46:57.756Z,48.25
2019-04-29T13:49:13.763Z,58.28
2019-04-29T13:51:35.188Z,43.13
2019-04-29T13:53:33.968Z,40.75
2019-04-29T13:55:49.983Z,42.13
2019-04-29T13:57:54.768Z,42.98
2019-04-29T14:00:10.574Z,26.82
2019-04-29T14:02:22.084Z,29.80
2019-04-29T14:04:32.066Z,58.28
2019-04-29T14:06:41.595Z,46.68
2019-04-29T14:08:49.557Z,43.28
2019-04-29T14:10:57.477Z,52.38
2019-04-29T14:13:13.293Z,67.58
2019-04-29T14:15:16.245Z,57.05
2019-04-29T14:17:26.928Z,39.63
2019-04-29T14:19:41.109Z,43.08
2019-04-29T14:21:44.213Z,31.33
2019-04-29T14:23:53.509Z,26.85
2019-04-29T14:26:01.815Z,26.97
2019-04-29T14:28:12.903Z,25.00
2019-04-29T14:30:21.692Z,26.00
2019-04-29T14:32:35.827Z,29.90
2019-04-29T14:34:49.266Z,31.97
2019-04-29T14:37:18.052Z,34.05
2019-04-29T14:39:13.107Z,36.40
2019-04-29T14:41:20.856Z,42.30
2019-04-29T14:43:41.130Z,36.93
2019-04-29T14:45:54.128Z,38.65
2019-04-29T14:48:19.443Z,39.35
2019-04-29T14:50:27.674Z,35.50
2019-04-29T14:52:35.961Z,40.65
2019-04-29T14:54:44.156Z,41.55
2019-04-29T14:56:52.280Z,37.00
2019-04-29T14:59:07.189Z,45.88
2019-04-29T15:01:12.239Z,39.10
2019-04-29T15:03:25.590Z,35.85
2019-04-29T15:05:33.892Z,42.62
2019-04-29T15:07:41.884Z,40.20
2019-04-29T15:09:57.394Z,39.78
2019-04-29T15:12:09.783Z,45.40
2019-04-29T15:14:35.451Z,45.00
2019-04-29T15:16:49.057Z,61.15
2019-04-29T15:19:03.308Z,54.70
2019-04-29T15:21:14.008Z,60.20
2019-04-29T15:23:28.856Z,66.00
2019-04-29T15:25:31.824Z,62.17
2019-04-29T15:27:40.089Z,66.28
2019-04-29T15:29:48.646Z,70.17
2019-04-29T15:31:56.931Z,72.78
2019-04-29T15:34:09.022Z,73.52
2019-04-29T15:36:14.613Z,74.72
2019-04-29T15:38:22.522Z,70.25
2019-04-29T15:40:30.410Z,52.08
2019-04-29T15:42:42.767Z,69.03
2019-04-29T15:44:51.625Z,57.17
2019-04-29T15:46:58.346Z,56.83
2019-04-29T15:49:06.726Z,36.90
2019-04-29T15:51:14.988Z,52.85
2019-04-29T15:53:22.969Z,59.15
2019-04-29T15:55:30.878Z,70.92
2019-04-29T15:57:38.878Z,58.20
2019-04-29T15:59:49.178Z,49.50
2019-04-29T16:01:59.214Z,47.78
2019-04-29T16:04:12.928Z,49.88
2019-04-29T16:06:21.783Z,47.85
2019-04-29T16:08:29.734Z,52.43
2019-04-29T16:10:57.855Z,39.98
2019-04-29T16:13:06.961Z,38.10
2019-04-29T16:15:15.491Z,48.40
2019-04-29T16:17:23.396Z,42.00
2019-04-29T16:19:32.120Z,40.83
2019-04-29T16:21:41.798Z,45.88
2019-04-29T16:23:49.865Z,51.28
2019-04-29T16:25:58.908Z,47.98
2019-04-29T16:28:06.788Z,48.05
2019-04-29T16:30:19.013Z,49.83
2019-04-29T16:32:32.028Z,55.43
2019-04-29T16:34:44.666Z,59.65
2019-04-29T16:36:52.434Z,65.40
2019-04-29T16:39:00.337Z,61.42
2019-04-29T16:41:19.459Z,50.05
2019-04-29T16:43:29.269Z,51.48
2019-04-29T16:45:55.433Z,49.40
2019-04-29T16:48:03.581Z,48.52
2019-04-29T16:50:11.644Z,51.37
2019-04-29T16:52:19.703Z,54.85
2019-04-29T16:54:28.637Z,55.90
2019-04-29T16:56:36.943Z,59.00
2019-04-29T16:58:44.861Z,59.55
2019-04-29T17:00:54.847Z,62.45
2019-04-29T17:03:02.430Z,68.20
2019-04-29T17:05:10.497Z,64.35
2019-04-29T17:07:18.572Z,71.45
2019-04-29T17:09:33.682Z,71.92
2019-04-29T17:11:44.624Z,73.75
2019-04-29T17:13:54.787Z,75.30
2019-04-29T17:16:04.302Z,79.80
2019-04-29T17:18:12.309Z,76.95
2019-04-29T17:20:21.796Z,77.58
2019-04-29T17:22:29.650Z,80.45
2019-04-29T17:24:37.547Z,83.10
2019-04-29T17:26:50.490Z,83.37
2019-04-29T17:29:11.560Z,85.53
2019-04-29T17:31:13.429Z,92.02
2019-04-29T17:33:48.836Z,92.97
2019-04-29T17:35:50.972Z,102.00
2019-04-29T17:37:59.047Z,119.80
2019-04-29T17:40:09.154Z,102.82
2019-04-29T17:42:17.420Z,85.55
2019-04-29T17:44:37.363Z,84.13
2019-04-29T17:46:54.575Z,91.60
2019-04-29T17:49:16.383Z,95.20
2019-04-29T17:51:24.808Z,101.80
2019-04-29T17:53:35.469Z,100.75
2019-04-29T17:55:45.327Z,107.52
2019-04-29T17:57:58.173Z,98.78
2019-04-29T18:00:26.890Z,109.95
2019-04-29T18:02:52.517Z,110.90
2019-04-29T18:05:17.037Z,121.15
2019-04-29T18:07:40.460Z,112.10
2019-04-29T18:09:48.484Z,118.60
2019-04-29T18:11:57.911Z,129.03
2019-04-29T18:14:08.706Z,129.55
2019-04-29T18:16:25.695Z,115.08
2019-04-29T18:18:46.476Z,91.55
2019-04-29T18:20:50.438Z,100.75
2019-04-29T18:23:15.820Z,109.25
2019-04-29T18:25:31.040Z,129.42
2019-04-29T18:27:39.285Z,161.43
2019-04-29T18:29:47.092Z,167.18
2019-04-29T18:31:55.628Z,158.37
2019-04-29T18:34:05.486Z,154.18
2019-04-29T18:36:21.972Z,155.97
2019-04-29T18:38:26.235Z,149.93
2019-04-29T18:40:41.415Z,155.18
2019-04-29T18:42:46.895Z,140.10
2019-04-29T18:45:00.210Z,134.57
2019-04-29T18:47:05.509Z,139.45
2019-04-29T18:49:13.423Z,150.35
2019-04-29T18:51:27.402Z,145.85
2019-04-29T18:53:31.171Z,153.60
2019-04-29T18:55:39.272Z,141.60
2019-04-29T18:57:47.283Z,131.05
2019-04-29T18:59:55.446Z,121.02
2019-04-29T19:02:07.827Z,110.92
2019-04-29T19:04:19.245Z,122.33
2019-04-29T19:06:27.792Z,145.65
2019-04-29T19:08:36.152Z,135.32
2019-04-29T19:10:45.987Z,134.78
2019-04-29T19:13:00.135Z,135.20
2019-04-29T19:15:10.021Z,138.25
2019-04-29T19:17:16.158Z,151.37
2019-04-29T19:19:25.305Z,139.40
2019-04-29T19:21:33.294Z,137.68
2019-04-29T19:23:41.199Z,136.25
2019-04-29T19:25:50.197Z,136.18
2019-04-29T19:27:58.376Z,154.18
2019-04-29T19:30:09.180Z,150.72
2019-04-29T19:32:18.861Z,146.65
2019-04-29T19:34:26.791Z,153.40
2019-04-29T19:36:35.287Z,154.68
2019-04-29T19:38:47.235Z,153.57
2019-04-29T19:40:55.038Z,168.60
2019-04-29T19:43:02.949Z,172.62
2019-04-29T19:45:13.155Z,149.68
2019-04-29T19:47:20.709Z,167.53
2019-04-29T19:49:28.516Z,155.90
2019-04-29T19:51:39.338Z,144.45
2019-04-29T19:53:49.432Z,143.68
2019-04-29T19:56:03.484Z,150.50
2019-04-29T19:58:07.145Z,140.70
2019-04-29T20:00:17.740Z,138.07
2019-04-29T20:02:26.415Z,129.32
2019-04-29T20:04:39.512Z,128.62
2019-04-29T20:06:48.390Z,139.75
2019-04-29T20:09:01.086Z,131.37
2019-04-29T20:11:14.714Z,130.78
2019-04-29T20:13:17.253Z,123.15
2019-04-29T20:15:47.107Z,132.67
2019-04-29T20:18:10.713Z,149.40
2019-04-29T20:20:20.644Z,119.53
2019-04-29T20:22:29.037Z,72.32
2019-04-29T20:24:37.255Z,57.08
2019-04-29T20:26:46.919Z,36.60
2019-04-29T20:28:55.674Z,37.63
2019-04-29T20:31:16.262Z,32.28
2019-04-29T20:33:16.080Z,42.67
2019-04-29T20:35:25.974Z,48.87
2019-04-29T20:37:36.010Z,51.28
2019-04-29T20:39:45.643Z,49.60
2019-04-29T20:41:55.701Z,44.20
2019-04-29T20:44:05.851Z,47.25
2019-04-29T20:46:13.582Z,50.88
2019-04-29T20:48:21.762Z,48.68
2019-04-29T20:50:30.373Z,52.80
2019-04-29T20:52:56.115Z,50.08
2019-04-29T20:55:02.639Z,48.28
2019-04-29T20:57:17.633Z,58.08
2019-04-29T20:59:21.050Z,57.35
2019-04-29T21:01:43.217Z,61.37
2019-04-29T21:03:53.491Z,60.17
2019-04-29T21:06:02.327Z,50.92
2019-04-29T21:08:14.513Z,57.25
2019-04-29T21:10:18.833Z,46.88
2019-04-29T21:12:34.844Z,55.15
2019-04-29T21:14:43.605Z,57.08
2019-04-29T21:16:55.191Z,55.88
2019-04-29T21:19:08.752Z,58.80
2019-04-29T21:21:17.115Z,40.70
2019-04-29T21:23:25.031Z,45.38
2019-04-29T21:25:33.003Z,42.38
2019-04-29T21:27:41.259Z,40.25
2019-04-29T21:29:49.769Z,32.67
2019-04-29T21:32:01.480Z,50.52
2019-04-29T21:34:07.603Z,44.25
2019-04-29T21:36:15.552Z,42.73
2019-04-29T21:38:41.353Z,46.77
2019-04-29T21:40:51.591Z,39.73
2019-04-29T21:43:01.154Z,40.28
2019-04-29T21:45:11.658Z,41.10
2019-04-29T21:47:20.022Z,36.23
2019-04-29T21:49:27.853Z,34.30
2019-04-29T21:51:35.745Z,37.85
2019-04-29T21:53:43.708Z,34.92
2019-04-29T21:55:51.548Z,37.33
2019-04-29T21:58:00.214Z,44.42
2019-04-29T22:00:10.979Z,32.30
2019-04-29T22:02:20.924Z,36.75
2019-04-29T22:04:32.710Z,36.77
2019-04-29T22:06:38.478Z,32.63
2019-04-29T22:08:46.394Z,34.03
2019-04-29T22:10:59.104Z,27.87
2019-04-29T22:13:07.041Z,34.75
2019-04-29T22:15:29.942Z,36.10
2019-04-29T22:17:32.764Z,33.80
2019-04-29T22:19:38.538Z,30.50
2019-04-29T22:21:46.592Z,34.15
2019-04-29T22:23:55.262Z,35.28
2019-04-29T22:26:05.041Z,32.17
2019-04-29T22:28:15.871Z,34.43
2019-04-29T22:30:23.374Z,27.15
2019-04-29T22:32:31.335Z,31.05
2019-04-29T22:34:39.315Z,31.50
2019-04-29T22:36:48.184Z,28.83
2019-04-29T22:38:56.939Z,30.32
2019-04-29T22:41:06.604Z,31.57
2019-04-29T22:43:25.441Z,35.58
2019-04-29T22:45:35.574Z,31.50
2019-04-29T22:47:43.702Z,30.27
2019-04-29T22:49:51.785Z,31.73
2019-04-29T22:51:59.660Z,36.55
2019-04-29T22:54:07.755Z,32.23
2019-04-29T22:56:16.056Z,33.75
2019-04-29T22:58:24.982Z,39.25
2019-04-29T23:00:36.144Z,34.67
2019-04-29T23:02:44.517Z,35.33
2019-04-29T23:04:53.807Z,33.45
2019-04-29T23:07:02.602Z,38.23
2019-04-29T23:09:12.085Z,39.00
2019-04-29T23:11:20.219Z,42.70
2019-04-29T23:13:31.103Z,42.73
2019-04-29T23:15:37.992Z,38.63
2019-04-29T23:17:47.360Z,49.03
2019-04-29T23:19:57.150Z,48.02
2019-04-29T23:22:22.142Z,48.00
2019-04-29T23:24:34.113Z,44.33
2019-04-29T23:26:42.574Z,44.48
2019-04-29T23:28:50.599Z,50.23
2019-04-29T23:30:58.732Z,49.65
2019-04-29T23:33:06.531Z,57.55
2019-04-29T23:35:14.949Z,53.90
2019-04-29T23:37:27.138Z,52.73
2019-04-29T23:39:34.824Z,59.25
2019-04-29T23:41:45.134Z,59.53
2019-04-29T23:43:53.365Z,58.87
2019-04-29T23:46:01.748Z,61.37
2019-04-29T23:48:09.647Z,58.17
2019-04-29T23:50:18.605Z,55.92
2019-04-29T23:52:27.629Z,51.48
2019-04-29T23:54:44.411Z,52.48
2019-04-29T23:57:00.469Z,54.30
2019-04-29T23:59:18.451Z,50.03
